Time;durP1;ratioP1;P1;durP2;ratioP2;P2;SDS_P1;SDS_P2;PMS_P1;PMS_P2;Temp;Humidity;BMP_temperature;BMP_pressure;BME280_temperature;BME280_humidity;BME280_pressure;Samples;Min_cycle;Max_cycle;Signal;HPM_P1;HPM_P2
2023/08/25 00:01:21;;;;;;;;;;;;;;;19.77;81.75;96425.31;109483;1283;125231;-91
2023/08/25 00:03:49;;;;;;;;;;;;;;;19.76;82.35;96416.55;109615;1287;22411;-91
2023/08/25 00:06:15;;;;;;;;;;;;;;;19.73;82.14;96426.11;109550;1289;22476;-92
2023/08/25 00:08:41;;;;;;;;;;;;;;;19.70;82.08;96433.36;109455;1290;125045;-91
2023/08/25 00:11:07;;;;;;;;;;;;;;;19.67;81.57;96433.08;109618;1283;22461;-92
2023/08/25 00:13:35;;;;;;;;;;;;;;;19.66;81.34;96431.48;109479;1291;124915;-92
2023/08/25 00:16:03;;;;;;;;;;;;;;;19.67;81.79;96432.41;109621;1286;23104;-91
2023/08/25 00:18:29;;;;;;;;;;;;;;;19.67;81.84;96432.83;109569;1291;23327;-91
2023/08/25 00:20:56;;;;;;;;;;;;;;;19.67;81.68;96433.71;109514;1285;124872;-92
2023/08/25 00:23:22;;;;;;;;;;;;;;;19.65;81.94;96432.00;109558;1284;22490;-91
2023/08/25 00:25:48;;;;;;;;;;;;;;;19.66;81.59;96434.50;109509;1292;124941;-92
2023/08/25 00:28:16;;;;;;;;;;;;;;;19.67;81.10;96430.77;109554;1291;22987;-92
2023/08/25 00:30:43;;;;;;;;;;;;;;;19.70;80.86;96427.20;109463;1286;124930;-91
2023/08/25 00:33:09;;;;;;;;;;;;;;;19.72;81.31;96424.19;109546;1286;23234;-92
2023/08/25 00:35:36;;;;;;;;;;;;;;;19.71;81.38;96415.05;109612;1287;22438;-91
2023/08/25 00:38:02;;;;;;;;;;;;;;;19.69;80.71;96408.48;109381;1283;125006;-92
2023/08/25 00:40:33;;;;;;;;;;;;;;;19.68;80.98;96398.68;109577;1285;22431;-91
2023/08/25 00:42:59;;;;;;;;;;;;;;;19.66;80.89;96401.60;109448;1283;125017;-92
2023/08/25 00:45:26;;;;;;;;;;;;;;;19.63;81.18;96403.83;109549;1289;22432;-91
2023/08/25 00:47:52;;;;;;;;;;;;;;;19.62;80.71;96402.59;109589;1284;23219;-92
2023/08/25 00:50:19;;;;;;;;;;;;;;;19.61;79.66;96399.73;109451;1291;124864;-91
2023/08/25 00:52:45;;;;;;;;;;;;;;;19.62;79.73;96400.75;109560;1292;22587;-92
2023/08/25 00:55:12;;;;;;;;;;;;;;;19.61;79.86;96400.27;109479;1288;125118;-92
2023/08/25 00:57:37;;;;;;;;;;;;;;;19.59;80.38;96401.61;109641;1287;23265;-92
2023/08/25 01:00:06;;;;;;;;;;;;;;;19.59;81.29;96402.96;109522;1287;22517;-91
2023/08/25 01:02:34;;;;;;;;;;;;;;;19.58;83.25;96404.48;109533;1286;125003;-91
2023/08/25 01:05:00;;;;;;;;;;;;;;;19.57;85.54;96400.83;109604;1289;22494;-91
2023/08/25 01:07:27;;;;;;;;;;;;;;;19.51;85.95;96395.27;109467;1286;125016;-91
2023/08/25 01:09:54;;;;;;;;;;;;;;;19.46;86.40;96396.08;109556;1289;22522;-91
2023/08/25 01:12:35;;;;;;;;;;;;;;;19.43;87.62;96395.55;109581;1288;23283;-90
2023/08/25 01:15:04;;;;;;;;;;;;;;;19.39;88.08;96397.11;109514;1288;124495;-91
2023/08/25 01:17:36;;;;;;;;;;;;;;;19.33;88.49;96398.52;109554;1291;23265;-90
2023/08/25 01:20:09;;;;;;;;;;;;;;;19.27;88.64;96398.85;109511;1287;125267;-91
2023/08/25 01:22:54;;;;;;;;;;;;;;;19.20;88.84;96401.89;109621;1286;23297;-92
2023/08/25 01:25:27;;;;;;;;;;;;;;;19.14;88.37;96397.02;109497;1288;125993;-91
2023/08/25 01:27:55;;;;;;;;;;;;;;;19.08;88.11;96399.70;109618;1283;22449;-91
2023/08/25 01:30:24;;;;;;;;;;;;;;;19.01;87.70;96395.34;109575;1291;22458;-91
2023/08/25 01:32:53;;;;;;;;;;;;;;;18.93;87.14;96389.00;109497;1285;125024;-90
2023/08/25 01:35:23;;;;;;;;;;;;;;;18.89;86.96;96392.65;109625;1283;22592;-91
2023/08/25 01:38:04;;;;;;;;;;;;;;;18.84;86.70;96388.76;109450;1285;125651;-91
2023/08/25 01:40:33;;;;;;;;;;;;;;;18.80;86.63;96383.83;109554;1285;22475;-90
2023/08/25 01:43:00;;;;;;;;;;;;;;;18.79;87.34;96383.08;109428;1283;124084;-90
2023/08/25 01:45:26;;;;;;;;;;;;;;;18.79;86.19;96384.45;109589;1288;22416;-91
2023/08/25 01:47:55;;;;;;;;;;;;;;;18.82;83.95;96380.61;109564;1291;22528;-90
2023/08/25 01:50:21;;;;;;;;;;;;;;;18.91;82.78;96377.73;109453;1291;125090;-91
2023/08/25 01:52:48;;;;;;;;;;;;;;;19.04;81.64;96369.19;109591;1289;22463;-91
2023/08/25 01:55:14;;;;;;;;;;;;;;;19.25;79.21;96365.87;109453;1291;125116;-91
2023/08/25 01:57:41;;;;;;;;;;;;;;;19.44;80.18;96356.72;109644;1286;22548;-90
2023/08/25 02:00:07;;;;;;;;;;;;;;;19.57;79.62;96357.44;109571;1287;22418;-90
2023/08/25 02:02:33;;;;;;;;;;;;;;;19.64;79.98;96358.83;109439;1291;125373;-90
2023/08/25 02:05:00;;;;;;;;;;;;;;;19.68;78.66;96364.33;109551;1289;22474;-91
2023/08/25 02:07:26;;;;;;;;;;;;;;;19.75;77.53;96363.33;109405;1290;125556;-91
2023/08/25 02:09:54;;;;;;;;;;;;;;;19.84;76.40;96361.52;109549;1291;22463;-91
2023/08/25 02:12:21;;;;;;;;;;;;;;;19.95;75.49;96360.98;109580;1291;23214;-90
2023/08/25 02:14:48;;;;;;;;;;;;;;;20.06;74.51;96353.52;109537;1287;125008;-91
2023/08/25 02:17:14;;;;;;;;;;;;;;;20.17;73.89;96344.21;109580;1287;22575;-91
2023/08/25 02:19:44;;;;;;;;;;;;;;;20.25;73.87;96340.52;109531;1287;125338;-91
2023/08/25 02:22:10;;;;;;;;;;;;;;;20.29;73.63;96341.27;109595;1291;22423;-91
2023/08/25 02:24:37;;;;;;;;;;;;;;;20.38;72.34;96342.20;109406;1289;125248;-91
2023/08/25 02:27:03;;;;;;;;;;;;;;;20.51;72.12;96344.42;109563;1285;22971;-91
2023/08/25 02:29:29;;;;;;;;;;;;;;;20.60;72.81;96346.60;109616;1286;22499;-91
2023/08/25 02:31:56;;;;;;;;;;;;;;;20.66;72.63;96348.00;109510;1289;125402;-91
2023/08/25 02:34:23;;;;;;;;;;;;;;;20.70;72.85;96347.20;109649;1283;22577;-91
2023/08/25 02:36:51;;;;;;;;;;;;;;;20.72;72.95;96343.64;109542;1283;125327;-91
2023/08/25 02:39:20;;;;;;;;;;;;;;;20.76;72.69;96342.83;109600;1286;23135;-92
2023/08/25 02:41:47;;;;;;;;;;;;;;;20.83;73.24;96340.02;109622;1284;22883;-91
2023/08/25 02:44:13;;;;;;;;;;;;;;;20.85;73.13;96340.41;109500;1286;124920;-91
2023/08/25 02:46:40;;;;;;;;;;;;;;;20.86;73.09;96341.53;109611;1284;22514;-91
2023/08/25 02:49:06;;;;;;;;;;;;;;;20.89;72.38;96345.95;109559;1284;125347;-90
2023/08/25 02:51:33;;;;;;;;;;;;;;;20.92;73.31;96350.88;109540;1289;22957;-91
2023/08/25 02:53:59;;;;;;;;;;;;;;;20.92;73.12;96350.35;109641;1287;22491;-91
2023/08/25 02:56:25;;;;;;;;;;;;;;;20.91;74.46;96352.52;109244;1291;230355;-92
2023/08/25 02:58:50;;;;;;;;;;;;;;;20.88;74.57;96356.18;109549;1283;22536;-91
2023/08/25 03:01:17;;;;;;;;;;;;;;;20.82;74.63;96349.61;109482;1286;125111;-91
2023/08/25 03:03:44;;;;;;;;;;;;;;;20.77;74.69;96345.85;109636;1271;22493;-91
2023/08/25 03:06:10;;;;;;;;;;;;;;;20.81;74.14;96351.29;109551;1283;22510;-91
2023/08/25 03:08:36;;;;;;;;;;;;;;;20.87;74.45;96355.38;109530;1291;124730;-91
2023/08/25 03:11:03;;;;;;;;;;;;;;;20.90;74.88;96352.39;109535;1290;22469;-92
2023/08/25 03:13:29;;;;;;;;;;;;;;;20.91;75.46;96345.05;109468;1291;124468;-91
2023/08/25 03:15:56;;;;;;;;;;;;;;;20.90;75.08;96348.80;109518;1289;22513;-92
2023/08/25 03:18:23;;;;;;;;;;;;;;;20.92;74.86;96346.86;109601;1281;22472;-90
2023/08/25 03:20:49;;;;;;;;;;;;;;;20.92;75.11;96351.99;109512;1283;125507;-91
2023/08/25 03:23:15;;;;;;;;;;;;;;;20.94;74.92;96354.76;109568;1284;22489;-91
2023/08/25 03:25:42;;;;;;;;;;;;;;;21.01;75.23;96356.47;109530;1289;125393;-91
2023/08/25 03:28:08;;;;;;;;;;;;;;;21.07;75.22;96357.33;109663;1284;23257;-91
2023/08/25 03:30:34;;;;;;;;;;;;;;;21.15;75.15;96363.54;109559;1283;23304;-91
2023/08/25 03:33:00;;;;;;;;;;;;;;;21.20;75.65;96367.20;109483;1287;125168;-92
2023/08/25 03:35:27;;;;;;;;;;;;;;;21.21;76.28;96372.95;109542;1286;22443;-92
2023/08/25 03:37:54;;;;;;;;;;;;;;;21.20;75.93;96377.86;109415;1286;125230;-91
2023/08/25 03:40:21;;;;;;;;;;;;;;;21.21;76.28;96364.92;109540;1287;23142;-92
2023/08/25 03:42:48;;;;;;;;;;;;;;;21.23;76.02;96351.27;109459;1284;124859;-91
2023/08/25 03:45:14;;;;;;;;;;;;;;;21.26;76.91;96337.25;109556;1285;22579;-91
2023/08/25 03:47:41;;;;;;;;;;;;;;;21.25;77.24;96331.90;109538;1285;22545;-91
2023/08/25 03:50:07;;;;;;;;;;;;;;;21.23;78.27;96335.45;109454;1284;124857;-91
2023/08/25 03:52:42;;;;;;;;;;;;;;;21.17;78.76;96329.80;109582;1291;22523;-92
2023/08/25 03:55:08;;;;;;;;;;;;;;;21.12;78.35;96331.06;109477;1284;125181;-91
2023/08/25 03:57:34;;;;;;;;;;;;;;;21.13;78.56;96330.38;109632;1284;22502;-91
2023/08/25 04:00:01;;;;;;;;;;;;;;;21.14;78.07;96323.95;109605;1290;22451;-91
2023/08/25 04:02:28;;;;;;;;;;;;;;;21.19;79.07;96322.90;109530;1287;125011;-91
2023/08/25 04:04:54;;;;;;;;;;;;;;;21.17;78.99;96313.06;109556;1287;22501;-91
2023/08/25 04:07:20;;;;;;;;;;;;;;;21.16;78.82;96307.23;109440;1284;125345;-91
2023/08/25 04:09:46;;;;;;;;;;;;;;;21.16;78.89;96303.06;109521;1283;22464;-91
2023/08/25 04:12:13;;;;;;;;;;;;;;;21.16;78.89;96298.73;109528;1287;23148;-91
2023/08/25 04:14:42;;;;;;;;;;;;;;;21.16;78.88;96302.95;109551;1291;123882;-92
2023/08/25 04:17:09;;;;;;;;;;;;;;;21.18;78.82;96303.77;109606;1283;22477;-91
2023/08/25 04:19:36;;;;;;;;;;;;;;;21.23;78.50;96303.91;109342;1284;125123;-91
2023/08/25 04:22:03;;;;;;;;;;;;;;;21.27;79.54;96312.58;109628;1284;22429;-90
2023/08/25 04:24:29;;;;;;;;;;;;;;;21.28;79.02;96316.19;109601;1291;23477;-90
2023/08/25 04:26:59;;;;;;;;;;;;;;;21.31;79.04;96312.77;109472;1285;124486;-91
2023/08/25 04:29:30;;;;;;;;;;;;;;;21.34;78.29;96306.58;109548;1292;22421;-91
2023/08/25 04:31:56;;;;;;;;;;;;;;;21.41;78.01;96309.16;109452;1289;125200;-91
2023/08/25 04:34:22;;;;;;;;;;;;;;;21.48;78.17;96308.27;109472;1291;23312;-91
2023/08/25 04:36:49;;;;;;;;;;;;;;;21.57;77.30;96308.39;109325;1291;125323;-91
2023/08/25 04:39:15;;;;;;;;;;;;;;;21.65;77.59;96308.57;109432;1290;22629;-92
2023/08/25 04:41:41;;;;;;;;;;;;;;;21.70;77.80;96305.70;109480;1283;22492;-91
2023/08/25 04:44:08;;;;;;;;;;;;;;;21.74;77.19;96299.95;109511;1291;124887;-90
2023/08/25 04:46:34;;;;;;;;;;;;;;;21.82;77.11;96293.36;109538;1284;22485;-92
2023/08/25 04:49:02;;;;;;;;;;;;;;;21.88;77.75;96288.94;109525;1284;145602;-92
2023/08/25 04:51:28;;;;;;;;;;;;;;;21.93;77.73;96285.73;109608;1286;22474;-91
2023/08/25 04:53:54;;;;;;;;;;;;;;;21.96;77.07;96275.23;109646;1286;23331;-92
2023/08/25 04:56:23;;;;;;;;;;;;;;;21.98;77.71;96272.82;109385;1291;125156;-91
2023/08/25 04:58:49;;;;;;;;;;;;;;;21.99;77.98;96268.70;109547;1290;22930;-92
2023/08/25 05:01:16;;;;;;;;;;;;;;;21.98;78.40;96270.12;109408;1283;125094;-91
2023/08/25 05:03:44;;;;;;;;;;;;;;;21.99;78.06;96265.20;109572;1289;22457;-92
2023/08/25 05:06:11;;;;;;;;;;;;;;;22.03;78.08;96264.58;109625;1283;22476;-91
2023/08/25 05:08:37;;;;;;;;;;;;;;;22.06;78.02;96265.21;109467;1290;125021;-90
2023/08/25 05:11:03;;;;;;;;;;;;;;;22.13;77.43;96265.14;109557;1289;22531;-91
2023/08/25 05:13:31;;;;;;;;;;;;;;;22.19;78.38;96269.61;109393;1291;125914;-92
2023/08/25 05:15:57;;;;;;;;;;;;;;;22.23;78.09;96266.13;109522;1284;22472;-91
2023/08/25 05:18:24;;;;;;;;;;;;;;;22.27;78.04;96266.57;109627;1287;22496;-92
2023/08/25 05:20:56;;;;;;;;;;;;;;;22.32;78.02;96264.06;109513;1283;124889;-91
2023/08/25 05:23:23;;;;;;;;;;;;;;;22.37;79.02;96258.68;109591;1289;22499;-91
2023/08/25 05:25:48;;;;;;;;;;;;;;;22.38;78.13;96249.05;109460;1291;125369;-90
2023/08/25 05:28:14;;;;;;;;;;;;;;;22.41;78.24;96246.72;109655;1283;23357;-92
2023/08/25 05:30:40;;;;;;;;;;;;;;;22.43;79.33;96239.73;109416;1284;125108;-92
2023/08/25 05:33:06;;;;;;;;;;;;;;;22.42;78.96;96242.06;109535;1283;22471;-91
2023/08/25 05:35:33;;;;;;;;;;;;;;;22.40;78.68;96238.14;109623;1291;22452;-91
2023/08/25 05:37:59;;;;;;;;;;;;;;;22.39;78.33;96232.90;109468;1283;125037;-91
2023/08/25 05:40:25;;;;;;;;;;;;;;;22.39;78.45;96235.28;109526;1291;22473;-92
2023/08/25 05:42:51;;;;;;;;;;;;;;;22.41;78.30;96224.59;109543;1283;125122;-92
2023/08/25 05:45:21;;;;;;;;;;;;;;;22.44;78.97;96217.08;109562;1284;22434;-91
2023/08/25 05:47:47;;;;;;;;;;;;;;;22.47;78.96;96219.86;109659;1283;23246;-91
2023/08/25 05:50:13;;;;;;;;;;;;;;;22.48;79.42;96213.14;109480;1284;124831;-92
2023/08/25 05:52:44;;;;;;;;;;;;;;;22.49;79.68;96213.93;109647;1284;22483;-92
2023/08/25 05:55:13;;;;;;;;;;;;;;;22.52;79.64;96207.48;109475;1283;124919;-92
2023/08/25 05:57:40;;;;;;;;;;;;;;;22.55;80.18;96205.41;109634;1284;22434;-91
2023/08/25 06:00:07;;;;;;;;;;;;;;;22.57;81.07;96203.35;109498;1283;23396;-92
2023/08/25 06:02:33;;;;;;;;;;;;;;;22.57;81.57;96204.98;109529;1288;124897;-92
2023/08/25 06:04:59;;;;;;;;;;;;;;;22.57;81.35;96209.06;109540;1286;22491;-92
2023/08/25 06:07:28;;;;;;;;;;;;;;;22.60;81.78;96213.84;109513;1283;125009;-92
2023/08/25 06:09:55;;;;;;;;;;;;;;;22.63;81.71;96216.36;109515;1283;22629;-91
2023/08/25 06:12:21;;;;;;;;;;;;;;;22.65;80.82;96211.27;109645;1283;22420;-92
2023/08/25 06:14:49;;;;;;;;;;;;;;;22.69;80.28;96218.63;109442;1287;125678;-92
2023/08/25 06:17:15;;;;;;;;;;;;;;;22.70;79.88;96214.50;109609;1274;22482;-92
2023/08/25 06:19:43;;;;;;;;;;;;;;;22.73;79.57;96213.77;109435;1291;124915;-92
2023/08/25 06:22:10;;;;;;;;;;;;;;;22.75;79.11;96215.02;109596;1285;22491;-92
2023/08/25 06:24:37;;;;;;;;;;;;;;;22.77;79.52;96213.86;109464;1290;125220;-91
2023/08/25 06:27:04;;;;;;;;;;;;;;;22.77;79.29;96214.39;109568;1283;22513;-92
2023/08/25 06:29:30;;;;;;;;;;;;;;;22.76;79.07;96204.16;109564;1284;22563;-91
2023/08/25 06:31:56;;;;;;;;;;;;;;;22.76;79.00;96196.75;109468;1283;125249;-91
2023/08/25 06:34:22;;;;;;;;;;;;;;;22.77;79.48;96195.75;109591;1283;22472;-91
2023/08/25 06:36:49;;;;;;;;;;;;;;;22.80;79.45;96206.52;109517;1284;125032;-91
2023/08/25 06:39:18;;;;;;;;;;;;;;;22.84;80.14;96204.54;109561;1286;23299;-91
2023/08/25 06:41:45;;;;;;;;;;;;;;;22.89;80.68;96204.75;109603;1290;22482;-92
2023/08/25 06:44:19;;;;;;;;;;;;;;;22.93;81.00;96202.31;109542;1291;124764;-91
2023/08/25 06:46:45;;;;;;;;;;;;;;;22.95;81.69;96197.83;109594;1283;22472;-92
2023/08/25 06:49:12;;;;;;;;;;;;;;;22.97;82.18;96190.79;109529;1290;125230;-92
2023/08/25 06:51:39;;;;;;;;;;;;;;;22.97;81.26;96188.61;109546;1287;22467;-91
2023/08/25 06:54:05;;;;;;;;;;;;;;;23.00;81.07;96194.75;109638;1283;22431;-91
2023/08/25 06:56:33;;;;;;;;;;;;;;;23.04;81.48;96207.99;109516;1284;125079;-92
2023/08/25 06:58:59;;;;;;;;;;;;;;;23.09;81.79;96219.91;109543;1283;23273;-92
2023/08/25 07:01:26;;;;;;;;;;;;;;;23.13;82.69;96225.29;109463;1283;124922;-91
2023/08/25 07:03:52;;;;;;;;;;;;;;;23.17;81.26;96228.46;109515;1286;23243;-92
2023/08/25 07:06:18;;;;;;;;;;;;;;;23.21;81.06;96230.20;109655;1284;22607;-91
2023/08/25 07:08:44;;;;;;;;;;;;;;;23.24;81.10;96240.11;109426;1290;124962;-90
2023/08/25 07:11:11;;;;;;;;;;;;;;;23.26;79.83;96248.48;109514;1286;22531;-91
2023/08/25 07:13:37;;;;;;;;;;;;;;;23.28;80.49;96254.88;109442;1289;124951;-92
2023/08/25 07:16:03;;;;;;;;;;;;;;;23.28;79.38;96252.55;109567;1285;22460;-91
2023/08/25 07:18:30;;;;;;;;;;;;;;;23.28;78.87;96253.39;109574;1284;22483;-92
2023/08/25 07:20:55;;;;;;;;;;;;;;;23.28;78.22;96247.56;109462;1284;124440;-92
2023/08/25 07:23:22;;;;;;;;;;;;;;;23.27;78.60;96239.29;109563;1283;22440;-92
2023/08/25 07:25:51;;;;;;;;;;;;;;;23.25;77.92;96244.88;109539;1287;125043;-91
2023/08/25 07:28:17;;;;;;;;;;;;;;;23.22;78.55;96253.90;109645;1284;22545;-91
2023/08/25 07:30:43;;;;;;;;;;;;;;;23.20;77.89;96255.23;109476;1291;125275;-91
2023/08/25 07:33:09;;;;;;;;;;;;;;;23.17;77.28;96241.82;109503;1285;22901;-91
2023/08/25 07:35:35;;;;;;;;;;;;;;;23.15;77.64;96233.14;109584;1284;22444;-91
2023/08/25 07:38:02;;;;;;;;;;;;;;;23.12;77.65;96238.17;109415;1285;125751;-92
2023/08/25 07:40:28;;;;;;;;;;;;;;;23.10;77.22;96253.58;109597;1284;22469;-91
2023/08/25 07:42:58;;;;;;;;;;;;;;;23.08;77.64;96259.93;109469;1287;125141;-91
2023/08/25 07:45:24;;;;;;;;;;;;;;;23.05;77.83;96256.70;109594;1286;22460;-91
2023/08/25 07:47:51;;;;;;;;;;;;;;;23.03;77.35;96257.39;109583;1283;23056;-90
2023/08/25 07:50:21;;;;;;;;;;;;;;;23.03;77.32;96254.90;109391;1285;125498;-91
2023/08/25 07:52:48;;;;;;;;;;;;;;;23.04;77.42;96262.16;109632;1284;22448;-91
2023/08/25 07:55:14;;;;;;;;;;;;;;;23.05;77.06;96264.38;109452;1284;125318;-90
2023/08/25 07:57:40;;;;;;;;;;;;;;;23.06;76.87;96262.05;109567;1283;22493;-91
2023/08/25 08:00:12;;;;;;;;;;;;;;;23.07;77.03;96259.73;109606;1284;22464;-90
2023/08/25 08:02:38;;;;;;;;;;;;;;;23.09;76.84;96262.63;109426;1286;124618;-91
2023/08/25 08:05:05;;;;;;;;;;;;;;;23.10;77.33;96266.24;109565;1285;22496;-90
2023/08/25 08:07:31;;;;;;;;;;;;;;;23.12;77.50;96269.02;109459;1284;125216;-91
2023/08/25 08:09:57;;;;;;;;;;;;;;;23.13;77.42;96272.52;109565;1288;22574;-90
2023/08/25 08:12:24;;;;;;;;;;;;;;;23.13;76.85;96262.18;109580;1283;22449;-91
2023/08/25 08:14:50;;;;;;;;;;;;;;;23.13;76.91;96255.40;109557;1284;124675;-90
2023/08/25 08:17:16;;;;;;;;;;;;;;;23.15;77.11;96247.49;109605;1287;22475;-91
2023/08/25 08:19:42;;;;;;;;;;;;;;;23.17;77.24;96249.19;109507;1284;124676;-91
2023/08/25 08:22:08;;;;;;;;;;;;;;;23.19;77.41;96245.63;109576;1284;22457;-91
2023/08/25 08:24:36;;;;;;;;;;;;;;;23.22;77.10;96243.73;109592;1291;22465;-91
2023/08/25 08:27:02;;;;;;;;;;;;;;;23.24;77.19;96248.33;109588;1284;22536;-90
2023/08/25 08:29:29;;;;;;;;;;;;;;;23.24;77.79;96243.81;109605;1284;22451;-91
2023/08/25 08:31:55;;;;;;;;;;;;;;;23.25;77.66;96242.02;109410;1286;125327;-91
2023/08/25 08:34:21;;;;;;;;;;;;;;;23.25;77.97;96242.45;109583;1284;22467;-91
2023/08/25 08:36:47;;;;;;;;;;;;;;;23.25;78.50;96239.85;109425;1288;125177;-91
2023/08/25 08:39:15;;;;;;;;;;;;;;;23.26;78.74;96238.94;109535;1289;23188;-91
2023/08/25 08:41:40;;;;;;;;;;;;;;;23.27;78.37;96243.89;109567;1284;22568;-91
2023/08/25 08:44:08;;;;;;;;;;;;;;;23.30;78.30;96241.30;109529;1283;125461;-91
2023/08/25 08:46:34;;;;;;;;;;;;;;;23.34;78.43;96244.84;109563;1280;22450;-90
2023/08/25 08:49:00;;;;;;;;;;;;;;;23.39;78.60;96246.27;109500;1283;125229;-91
2023/08/25 08:51:27;;;;;;;;;;;;;;;23.44;78.28;96248.45;109496;1289;22464;-92
2023/08/25 08:53:53;;;;;;;;;;;;;;;23.51;78.18;96257.08;109629;1287;22463;-91
2023/08/25 08:56:19;;;;;;;;;;;;;;;23.57;77.72;96256.61;109427;1287;125434;-91
2023/08/25 08:58:45;;;;;;;;;;;;;;;23.63;77.99;96260.55;109468;1289;23192;-91
2023/08/25 09:01:11;;;;;;;;;;;;;;;23.69;77.96;96255.88;109546;1284;125228;-91
2023/08/25 09:03:38;;;;;;;;;;;;;;;23.77;78.54;96252.59;109609;1283;22434;-92
2023/08/25 09:06:05;;;;;;;;;;;;;;;23.82;78.94;96251.34;109524;1283;23095;-91
2023/08/25 09:08:31;;;;;;;;;;;;;;;23.86;78.63;96253.77;109369;1290;125435;-91
2023/08/25 09:11:02;;;;;;;;;;;;;;;23.89;78.79;96251.80;109510;1289;22493;-91
2023/08/25 09:13:29;;;;;;;;;;;;;;;23.95;78.74;96250.27;109423;1288;124949;-91
2023/08/25 09:15:56;;;;;;;;;;;;;;;24.01;78.99;96247.95;109640;1287;23150;-90
2023/08/25 09:18:22;;;;;;;;;;;;;;;24.07;78.44;96247.83;109511;1291;22484;-91
2023/08/25 09:20:48;;;;;;;;;;;;;;;24.12;78.56;96243.14;109424;1284;124776;-90
2023/08/25 09:23:15;;;;;;;;;;;;;;;24.19;78.80;96238.59;109490;1290;22494;-90
2023/08/25 09:25:41;;;;;;;;;;;;;;;24.26;79.59;96239.43;109502;1287;125989;-91
2023/08/25 09:28:06;;;;;;;;;;;;;;;24.34;78.76;96234.80;109522;1284;22517;-90
2023/08/25 09:30:36;;;;;;;;;;;;;;;24.40;78.75;96234.51;109535;1281;22475;-91
2023/08/25 09:33:03;;;;;;;;;;;;;;;24.48;79.28;96228.63;109574;1284;22563;-90
2023/08/25 09:35:29;;;;;;;;;;;;;;;24.56;79.78;96229.48;109585;1283;23034;-91
2023/08/25 09:37:55;;;;;;;;;;;;;;;24.60;79.29;96233.09;109458;1284;125372;-90
2023/08/25 09:40:25;;;;;;;;;;;;;;;24.60;79.12;96229.30;109593;1284;22501;-91
2023/08/25 09:43:00;;;;;;;;;;;;;;;24.61;79.30;96229.20;109456;1288;125265;-91
2023/08/25 09:45:27;;;;;;;;;;;;;;;24.61;79.20;96229.84;109577;1288;22435;-90
2023/08/25 09:47:54;;;;;;;;;;;;;;;24.63;79.63;96230.25;109432;1287;22672;-91
2023/08/25 09:50:20;;;;;;;;;;;;;;;24.65;80.01;96227.84;109496;1284;125539;-91
2023/08/25 09:52:46;;;;;;;;;;;;;;;24.67;80.67;96225.86;109497;1285;22481;-90
2023/08/25 09:55:13;;;;;;;;;;;;;;;24.70;80.08;96227.59;109479;1287;125370;-91
2023/08/25 09:57:39;;;;;;;;;;;;;;;24.75;80.00;96226.58;109577;1284;22600;-91
2023/08/25 10:00:08;;;;;;;;;;;;;;;24.80;79.26;96225.67;109575;1284;22461;-91
2023/08/25 10:02:35;;;;;;;;;;;;;;;24.84;81.78;96222.62;109517;1284;124657;-90
2023/08/25 10:05:03;;;;;;;;;;;;;;;24.89;81.17;96224.34;109384;1290;22485;-91
2023/08/25 10:07:30;;;;;;;;;;;;;;;24.94;79.76;96222.68;109433;1289;125076;-91
2023/08/25 10:09:56;;;;;;;;;;;;;;;24.97;80.84;96215.84;109581;1283;23082;-90
2023/08/25 10:12:23;;;;;;;;;;;;;;;25.02;80.73;96209.61;109596;1284;22461;-92
2023/08/25 10:14:49;;;;;;;;;;;;;;;25.07;79.93;96206.45;109497;1287;124655;-91
2023/08/25 10:17:15;;;;;;;;;;;;;;;25.15;79.92;96209.89;109526;1283;22570;-91
2023/08/25 10:19:42;;;;;;;;;;;;;;;25.22;79.75;96209.46;109434;1286;125055;-91
2023/08/25 10:22:08;;;;;;;;;;;;;;;25.29;80.64;96205.78;109585;1290;22489;-91
2023/08/25 10:24:34;;;;;;;;;;;;;;;25.39;80.45;96209.84;109489;1285;22476;-90
2023/08/25 10:27:00;;;;;;;;;;;;;;;25.47;78.28;96214.08;109506;1283;124794;-91
2023/08/25 10:29:26;;;;;;;;;;;;;;;25.54;79.14;96213.53;109609;1287;22500;-91
2023/08/25 10:32:02;;;;;;;;;;;;;;;25.60;78.47;96215.45;109488;1284;125183;-91
2023/08/25 10:34:35;;;;;;;;;;;;;;;25.66;77.05;96210.49;109579;1284;22469;-91
2023/08/25 10:37:07;;;;;;;;;;;;;;;25.71;77.92;96208.83;109498;1285;125141;-91
2023/08/25 10:39:46;;;;;;;;;;;;;;;25.78;78.87;96209.23;109569;1287;22459;-91
2023/08/25 10:42:12;;;;;;;;;;;;;;;25.86;79.12;96212.76;109635;1291;22542;-91
2023/08/25 10:44:40;;;;;;;;;;;;;;;25.93;78.27;96218.45;109431;1287;124948;-91
2023/08/25 10:47:05;;;;;;;;;;;;;;;25.98;77.45;96222.05;109500;1287;22480;-91
2023/08/25 10:49:36;;;;;;;;;;;;;;;26.04;78.27;96224.48;109419;1286;125272;-91
2023/08/25 10:52:15;;;;;;;;;;;;;;;26.11;77.41;96228.25;109407;1287;22439;-90
2023/08/25 10:54:44;;;;;;;;;;;;;;;26.17;78.14;96227.69;109460;1290;125801;-91
2023/08/25 10:57:29;;;;;;;;;;;;;;;26.22;77.46;96233.08;109419;1291;22482;-91
2023/08/25 10:59:55;;;;;;;;;;;;;;;26.26;77.00;96235.84;109611;1283;22531;-91
2023/08/25 11:02:36;;;;;;;;;;;;;;;26.30;77.20;96239.23;109428;1287;125128;-91
2023/08/25 11:05:21;;;;;;;;;;;;;;;26.36;76.13;96244.48;109537;1287;22508;-91
2023/08/25 11:07:47;;;;;;;;;;;;;;;26.41;74.84;96243.73;109493;1284;124971;-91
2023/08/25 11:10:13;;;;;;;;;;;;;;;26.42;74.99;96242.34;109575;1284;22473;-91
2023/08/25 11:12:40;;;;;;;;;;;;;;;26.44;76.36;96245.79;109369;1283;125554;-92
2023/08/25 11:15:09;;;;;;;;;;;;;;;26.44;74.67;96245.66;109531;1289;23036;-91
2023/08/25 11:17:35;;;;;;;;;;;;;;;26.43;74.05;96243.65;109502;1286;22477;-90
2023/08/25 11:20:01;;;;;;;;;;;;;;;26.45;74.14;96240.85;109524;1284;124653;-91
2023/08/25 11:22:27;;;;;;;;;;;;;;;26.50;75.73;96243.34;109406;1283;22489;-90
2023/08/25 11:24:53;;;;;;;;;;;;;;;26.54;75.06;96242.63;109402;1289;125700;-91
2023/08/25 11:27:22;;;;;;;;;;;;;;;26.57;74.99;96241.35;109564;1284;22475;-91
2023/08/25 11:29:49;;;;;;;;;;;;;;;26.62;75.08;96232.32;109590;1283;22449;-91
2023/08/25 11:32:15;;;;;;;;;;;;;;;26.68;75.16;96232.23;109380;1283;124943;-91
2023/08/25 11:34:42;;;;;;;;;;;;;;;26.74;74.35;96228.70;109531;1286;22421;-91
2023/08/25 11:37:12;;;;;;;;;;;;;;;26.77;74.38;96230.77;109414;1287;125477;-91
2023/08/25 11:39:42;;;;;;;;;;;;;;;26.82;75.92;96230.48;109596;1284;23101;-91
2023/08/25 11:42:09;;;;;;;;;;;;;;;26.87;75.26;96232.18;109497;1290;22446;-90
2023/08/25 11:44:39;;;;;;;;;;;;;;;26.90;74.38;96237.84;109425;1289;125002;-91
2023/08/25 11:47:05;;;;;;;;;;;;;;;26.93;74.88;96243.25;109414;1287;22514;-91
2023/08/25 11:49:31;;;;;;;;;;;;;;;26.94;74.03;96244.61;109401;1286;125151;-91
2023/08/25 11:51:58;;;;;;;;;;;;;;;26.97;74.90;96245.47;109553;1283;22452;-91
2023/08/25 11:56:23;;;;;;;;;;;;;;;27.06;74.01;96239.66;105041;1307;556747;-91
2023/08/25 11:59:09;;;;;;;;;;;;;;;27.12;74.80;96238.45;108047;1280;22600;-90
2023/08/25 12:01:36;;;;;;;;;;;;;;;27.15;74.40;96238.98;107687;1279;124548;-91
2023/08/25 12:04:19;;;;;;;;;;;;;;;27.17;74.13;96238.53;107779;1279;22568;-90
2023/08/25 12:06:45;;;;;;;;;;;;;;;27.20;74.52;96243.63;107852;1282;123803;-91
2023/08/25 12:09:12;;;;;;;;;;;;;;;27.16;73.36;96237.44;107905;1283;209114;-91
2023/08/25 12:11:38;;;;;;;;;;;;;;;27.14;73.81;96240.50;108014;1279;22562;-90
2023/08/25 12:14:04;;;;;;;;;;;;;;;27.18;74.35;96246.42;108019;1273;125353;-91
2023/08/25 12:16:31;;;;;;;;;;;;;;;27.24;74.77;96244.55;108437;1271;25204;-91
2023/08/25 12:18:57;;;;;;;;;;;;;;;27.30;75.22;96239.77;108339;1269;124920;-90
2023/08/25 12:21:23;;;;;;;;;;;;;;;27.33;74.76;96235.65;108492;1275;23345;-91
2023/08/25 12:23:49;;;;;;;;;;;;;;;27.36;74.36;96237.64;108485;1269;25285;-91
2023/08/25 12:26:15;;;;;;;;;;;;;;;27.44;74.86;96231.54;108391;1272;124790;-91
2023/08/25 12:28:43;;;;;;;;;;;;;;;27.49;74.38;96233.20;108465;1269;22519;-91
2023/08/25 12:31:10;;;;;;;;;;;;;;;27.54;74.01;96235.77;108452;1269;124753;-91
2023/08/25 12:33:36;;;;;;;;;;;;;;;27.58;73.48;96229.31;108527;1270;22690;-92
2023/08/25 12:36:03;;;;;;;;;;;;;;;27.64;73.51;96231.47;108408;1269;24210;-92